Time;durP1;ratioP1;P1;durP2;ratioP2;P2;SDS_P1;SDS_P2;PMS_P1;PMS_P2;Temp;Humidity;BMP_temperature;BMP_pressure;BME280_temperature;BME280_humidity;BME280_pressure;Samples;Min_cycle;Max_cycle;Signal;HPM_P1;HPM_P2
2022/09/08 00:01:35;;;;;;;;;24.80;22.80;;;;;26.88;45.84;99250.28;5072030;28;8838;-80
2022/09/08 00:04:05;;;;;;;;;29.00;25.60;;;;;26.90;46.07;99248.34;5070067;28;8870;-79
2022/09/08 00:06:35;;;;;;;;;27.40;26.80;;;;;26.92;45.96;99249.09;5068320;28;9662;-79
2022/09/08 00:09:05;;;;;;;;;29.40;28.00;;;;;26.87;46.07;99251.28;5084814;28;8982;-81
2022/09/08 00:11:38;;;;;;;;;24.00;23.80;;;;;26.87;46.13;99246.78;5070290;28;8911;-82
2022/09/08 00:14:08;;;;;;;;;24.40;23.40;;;;;26.84;45.75;99246.97;5037562;28;8912;-79
2022/09/08 00:16:40;;;;;;;;;24.40;24.40;;;;;26.83;46.14;99239.94;5103656;27;10077;-78
2022/09/08 00:19:09;;;;;;;;;26.80;22.80;;;;;26.74;46.10;99245.97;5067633;28;8834;-81
2022/09/08 00:21:38;;;;;;;;;23.40;22.40;;;;;26.68;46.11;99241.91;5102011;28;8972;-80
2022/09/08 00:24:08;;;;;;;;;25.60;24.40;;;;;26.67;45.63;99240.19;5084828;28;9774;-80
2022/09/08 00:26:37;;;;;;;;;19.20;18.20;;;;;26.63;45.54;99228.00;5085325;28;8834;-81
2022/09/08 00:29:06;;;;;;;;;22.00;22.00;;;;;26.60;45.82;99239.78;5070476;28;8866;-80
2022/09/08 00:31:38;;;;;;;;;21.80;20.80;;;;;26.58;45.66;99240.84;5070178;28;8868;-79
2022/09/08 00:34:07;;;;;;;;;27.20;23.60;;;;;26.56;46.20;99240.06;5085428;28;8839;-79
2022/09/08 00:36:35;;;;;;;;;27.00;25.60;;;;;26.57;45.95;99242.63;5069778;28;8847;-80
2022/09/08 00:39:05;;;;;;;;;26.80;24.80;;;;;26.57;46.31;99247.13;5069107;28;8873;-79
2022/09/08 00:41:33;;;;;;;;;22.80;20.80;;;;;26.57;45.83;99242.63;5078318;28;8971;-81
2022/09/08 00:44:35;;;;;;;;;26.60;23.40;;;;;26.62;45.55;99251.22;5090757;28;8828;-78
2022/09/08 00:47:06;;;;;;;;;22.40;21.60;;;;;26.53;46.06;99253.69;5089450;28;9002;-80
2022/09/08 00:49:34;;;;;;;;;24.60;23.60;;;;;26.21;47.30;99254.97;5089278;28;8867;-81
2022/09/08 00:52:03;;;;;;;;;24.20;24.20;;;;;26.21;47.00;99257.66;5086193;28;8855;-82
2022/09/08 00:54:33;;;;;;;;;24.00;24.00;;;;;26.24;47.12;99262.78;5084813;28;8948;-78
2022/09/08 00:57:02;;;;;;;;;29.20;26.20;;;;;26.20;47.40;99265.78;5084665;28;8862;-80
2022/09/08 00:59:34;;;;;;;;;23.80;23.80;;;;;26.01;48.65;99276.88;5085114;28;8941;-77
2022/09/08 01:02:22;;;;;;;;;27.80;26.60;;;;;25.17;51.48;99289.53;5067935;28;9016;-80
2022/09/08 01:04:56;;;;;;;;;34.00;30.75;;;;;24.50;53.93;99313.31;5099241;28;8840;-78
2022/09/08 01:13:21;;;;;;;;;24.80;23.60;;;;;24.43;54.17;99302.16;5069154;28;8846;-84
2022/09/08 01:15:50;;;;;;;;;24.60;23.20;;;;;24.66;53.30;99310.56;5068631;28;8950;-83
2022/09/08 01:18:18;;;;;;;;;25.80;23.80;;;;;24.85;53.08;99303.13;5074521;28;8855;-75
2022/09/08 01:20:54;;;;;;;;;23.80;23.40;;;;;25.07;52.37;99301.75;5055943;28;8967;-75
2022/09/08 01:23:53;;;;;;;;;25.40;23.20;;;;;25.19;51.84;99308.97;5083276;28;9466;-75
2022/09/08 01:26:50;;;;;;;;;26.60;25.00;;;;;25.35;51.39;99308.88;5067948;28;8969;-76
2022/09/08 01:29:21;;;;;;;;;27.00;26.40;;;;;25.28;51.14;99302.22;5068324;28;8939;-75
2022/09/08 01:31:54;;;;;;;;;28.25;28.25;;;;;25.37;51.34;99295.41;5068035;28;8838;-75
2022/09/08 01:34:22;;;;;;;;;30.40;27.20;;;;;25.40;51.24;99297.88;5049333;28;8947;-75
2022/09/08 01:36:51;;;;;;;;;28.20;25.60;;;;;25.35;50.72;99290.19;5048918;28;8868;-74
2022/09/08 01:39:20;;;;;;;;;27.20;25.60;;;;;25.39;50.80;99275.66;5067951;28;8858;-74
2022/09/08 01:41:48;;;;;;;;;22.60;22.00;;;;;25.44;50.78;99272.69;5067874;28;8870;-75
2022/09/08 01:44:16;;;;;;;;;24.60;24.60;;;;;25.49;50.47;99274.09;5067214;28;8976;-75
2022/09/08 01:46:46;;;;;;;;;31.40;26.00;;;;;25.54;50.74;99264.91;5067938;28;8955;-74
2022/09/08 01:49:14;;;;;;;;;26.00;24.40;;;;;25.59;50.50;99254.78;5065994;28;9632;-75
2022/09/08 01:51:43;;;;;;;;;25.00;25.00;;;;;25.67;50.35;99261.31;5066516;28;8874;-74
2022/09/08 01:54:11;;;;;;;;;25.40;22.80;;;;;25.72;49.97;99257.47;5066403;28;8850;-74
2022/09/08 01:56:40;;;;;;;;;26.00;23.00;;;;;25.74;50.13;99259.06;5079111;28;8848;-74
2022/09/08 01:59:08;;;;;;;;;24.80;24.20;;;;;25.75;49.84;99257.28;5086697;28;8901;-73
2022/09/08 02:01:37;;;;;;;;;29.20;27.20;;;;;25.62;50.30;99260.78;5073163;28;8858;-75
2022/09/08 02:04:07;;;;;;;;;23.60;22.00;;;;;25.71;50.29;99253.97;5066513;28;9639;-76
2022/09/08 02:06:35;;;;;;;;;23.80;23.20;;;;;25.82;50.21;99248.75;5049901;28;8854;-75
2022/09/08 02:09:04;;;;;;;;;29.20;26.60;;;;;25.70;50.10;99246.91;5066931;28;8862;-75
2022/09/08 02:11:32;;;;;;;;;25.40;24.40;;;;;25.89;49.71;99238.47;5083402;28;8863;-75
2022/09/08 02:14:01;;;;;;;;;28.00;25.20;;;;;26.03;50.42;99232.19;5090874;28;9759;-75
2022/09/08 02:16:29;;;;;;;;;27.00;25.00;;;;;26.09;50.40;99234.47;5091626;28;8901;-76
2022/09/08 02:18:58;;;;;;;;;30.20;29.40;;;;;26.17;50.10;99241.94;5086507;28;8980;-76
2022/09/08 02:21:28;;;;;;;;;23.80;23.80;;;;;26.21;50.67;99235.41;5036002;28;8976;-75
2022/09/08 02:23:56;;;;;;;;;26.80;24.80;;;;;26.25;50.13;99237.75;5071992;28;8835;-75
2022/09/08 02:26:28;;;;;;;;;26.80;25.20;;;;;26.28;49.86;99239.38;5087366;28;8886;-75
2022/09/08 02:28:57;;;;;;;;;24.60;24.00;;;;;26.21;50.47;99232.75;5071571;28;9015;-76
2022/09/08 02:31:27;;;;;;;;;34.00;31.00;;;;;26.23;50.61;99234.34;5087126;28;8880;-77
2022/09/08 02:33:57;;;;;;;;;30.00;28.50;;;;;26.23;50.14;99229.00;5070974;28;8858;-77
2022/09/08 02:36:25;;;;;;;;;32.80;29.60;;;;;26.16;50.41;99232.19;5086275;28;8862;-77
2022/09/08 02:38:56;;;;;;;;;28.60;28.40;;;;;26.09;50.69;99230.91;5071146;28;8889;-75
2022/09/08 02:41:26;;;;;;;;;31.60;29.00;;;;;26.13;50.24;99224.41;5070774;28;8906;-75
2022/09/08 02:43:56;;;;;;;;;31.75;28.50;;;;;26.21;50.12;99222.06;5086528;28;8854;-75
2022/09/08 02:46:25;;;;;;;;;33.00;29.00;;;;;26.23;50.18;99217.44;5070721;28;9591;-74
2022/09/08 02:48:53;;;;;;;;;32.75;28.00;;;;;26.22;49.84;99226.44;5069474;28;8888;-75
2022/09/08 02:51:22;;;;;;;;;33.50;30.25;;;;;26.25;49.75;99226.22;5072054;28;9022;-76
2022/09/08 02:53:55;;;;;;;;;18.25;18.25;;;;;26.36;49.89;99212.94;5103140;28;9020;-76
2022/09/08 02:56:24;;;;;;;;;31.50;31.00;;;;;26.36;49.98;99210.28;5070406;28;8838;-76
2022/09/08 02:58:54;;;;;;;;;31.50;28.75;;;;;26.41;49.87;99213.47;5070328;28;8861;-76
2022/09/08 03:01:23;;;;;;;;;32.50;29.50;;;;;26.44;50.01;99215.91;5068960;28;8955;-76
2022/09/08 03:03:52;;;;;;;;;31.25;29.75;;;;;26.50;49.94;99213.78;5070615;28;8846;-78
2022/09/08 03:06:20;;;;;;;;;29.25;27.25;;;;;26.47;49.84;99209.50;5070257;28;10172;-75
2022/09/08 03:08:49;;;;;;;;;28.40;26.20;;;;;26.49;50.06;99212.06;5067581;28;8967;-76
2022/09/08 03:11:19;;;;;;;;;34.25;30.75;;;;;26.52;50.11;99215.38;5106147;28;8860;-76
2022/09/08 03:13:47;;;;;;;;;33.50;31.00;;;;;26.55;49.57;99223.16;5091217;28;8840;-76
2022/09/08 03:16:16;;;;;;;;;39.50;34.00;;;;;26.51;50.27;99220.84;5069905;28;8846;-79
2022/09/08 03:18:45;;;;;;;;;31.25;30.00;;;;;26.50;50.26;99216.44;5067610;28;8848;-78
2022/09/08 03:21:15;;;;;;;;;30.00;29.25;;;;;26.54;50.10;99221.47;5047419;28;9047;-75
2022/09/08 03:23:44;;;;;;;;;43.25;36.00;;;;;26.52;50.32;99228.75;5047193;28;8864;-76
2022/09/08 03:26:15;;;;;;;;;44.00;38.25;;;;;26.47;50.57;99230.91;5013392;28;8863;-74
2022/09/08 03:28:49;;;;;;;;;36.50;33.00;;;;;26.41;50.98;99231.34;5030869;28;8974;-76
2022/09/08 03:31:21;;;;;;;;;32.00;29.00;;;;;26.40;50.56;99234.97;5047416;28;8832;-76
2022/09/08 03:33:50;;;;;;;;;37.75;31.25;;;;;26.41;50.70;99234.03;5030655;28;8836;-77
2022/09/08 03:36:20;;;;;;;;;31.50;28.75;;;;;26.02;51.98;99233.19;5030769;28;8848;-76
2022/09/08 03:38:49;;;;;;;;;33.25;31.00;;;;;25.48;53.57;99239.47;5030292;28;8975;-76
2022/09/08 03:41:17;;;;;;;;;29.75;28.75;;;;;25.21;54.22;99237.66;5043957;28;8919;-75
2022/09/08 03:43:50;;;;;;;;;33.00;30.50;;;;;25.41;53.84;99246.22;5030754;28;8843;-76
2022/09/08 03:46:18;;;;;;;;;33.50;29.50;;;;;25.34;53.96;99250.25;5013737;28;8898;-78
2022/09/08 03:48:47;;;;;;;;;32.75;30.25;;;;;25.33;53.65;99253.84;5030152;28;8855;-77
2022/09/08 03:51:17;;;;;;;;;32.00;31.00;;;;;25.47;53.57;99253.78;5030350;28;8858;-80
2022/09/08 03:53:46;;;;;;;;;33.50;31.25;;;;;25.55;53.03;99258.63;5069183;28;8831;-77
2022/09/08 03:56:14;;;;;;;;;32.00;30.25;;;;;25.66;52.47;99254.25;5074787;28;8830;-75
2022/09/08 03:58:44;;;;;;;;;33.00;30.25;;;;;25.35;53.78;99250.13;5069148;28;8862;-77
2022/09/08 04:01:17;;;;;;;;;30.50;29.75;;;;;25.32;54.32;99253.00;5085080;28;9028;-78
2022/09/08 04:03:46;;;;;;;;;51.50;43.25;;;;;25.43;53.79;99252.28;5076524;28;8848;-76
2022/09/08 04:06:16;;;;;;;;;34.25;32.00;;;;;25.22;54.48;99251.88;5086914;28;8856;-76
2022/09/08 04:08:46;;;;;;;;;30.25;30.25;;;;;24.98;54.70;99257.84;5089324;28;8872;-75
2022/09/08 04:11:15;;;;;;;;;28.80;28.00;;;;;25.00;54.73;99268.41;5089886;28;8852;-77
2022/09/08 04:13:43;;;;;;;;;33.25;30.50;;;;;24.89;54.93;99255.78;5050540;28;8846;-75
2022/09/08 04:16:11;;;;;;;;;26.00;26.00;;;;;24.84;54.95;99264.09;5069386;28;8861;-77
2022/09/08 04:18:41;;;;;;;;;30.25;28.75;;;;;24.87;55.02;99258.53;5101710;28;9644;-75
2022/09/08 04:21:10;;;;;;;;;31.40;27.80;;;;;24.94;54.68;99260.81;5050435;28;8893;-74
2022/09/08 04:23:40;;;;;;;;;39.00;31.50;;;;;25.02;54.40;99255.84;5066371;28;8854;-76
2022/09/08 04:26:13;;;;;;;;;33.50;31.00;;;;;25.17;54.21;99254.84;5069184;28;8842;-73
2022/09/08 04:28:42;;;;;;;;;30.00;29.50;;;;;25.28;53.46;99263.03;5069191;28;8850;-75
2022/09/08 04:31:13;;;;;;;;;36.50;33.00;;;;;25.47;53.62;99261.81;5085415;28;9790;-76
2022/09/08 04:33:43;;;;;;;;;48.75;40.00;;;;;25.61;53.51;99266.22;5088405;28;8895;-75
2022/09/08 04:36:14;;;;;;;;;58.75;47.25;;;;;25.72;52.73;99255.66;5086456;28;9743;-75
2022/09/08 04:38:54;;;;;;;;;41.75;36.25;;;;;25.80;52.45;99263.16;5078615;28;9797;-74
2022/09/08 04:41:23;;;;;;;;;36.00;33.75;;;;;25.91;51.95;99262.44;5068625;28;8886;-76
2022/09/08 04:43:52;;;;;;;;;31.40;28.80;;;;;25.99;51.96;99270.78;5068126;28;8842;-76
2022/09/08 04:46:21;;;;;;;;;28.00;28.00;;;;;26.07;51.79;99271.13;5077183;28;8898;-75
2022/09/08 04:48:51;;;;;;;;;28.25;28.25;;;;;26.13;51.40;99265.34;5088967;28;8836;-75
2022/09/08 04:51:20;;;;;;;;;37.33;34.33;;;;;26.15;51.59;99274.13;5070868;28;9776;-77
2022/09/08 04:53:51;;;;;;;;;36.00;33.00;;;;;26.00;51.88;99277.88;5069030;28;8896;-78
2022/09/08 04:56:22;;;;;;;;;28.50;27.75;;;;;26.11;51.89;99277.97;5033993;28;8854;-77
2022/09/08 04:58:52;;;;;;;;;34.75;31.75;;;;;26.03;52.20;99273.16;5065951;28;8886;-77
2022/09/08 05:01:25;;;;;;;;;34.75;33.00;;;;;26.17;51.60;99287.38;5065748;28;8897;-75
2022/09/08 05:03:59;;;;;;;;;34.25;30.75;;;;;26.22;52.06;99286.09;5066175;28;8876;-76
2022/09/08 05:06:29;;;;;;;;;35.25;30.50;;;;;26.33;51.81;99295.19;5048626;28;8887;-77
2022/09/08 05:08:59;;;;;;;;;35.25;31.50;;;;;26.36;51.68;99295.81;5048768;28;8839;-74
2022/09/08 05:11:28;;;;;;;;;31.50;30.50;;;;;26.38;51.82;99295.72;5024285;28;9666;-77
2022/09/08 05:13:57;;;;;;;;;30.00;29.50;;;;;26.36;51.49;99282.47;5086006;28;9661;-75
2022/09/08 05:16:28;;;;;;;;;36.25;30.50;;;;;26.36;51.33;99284.28;5085045;28;8846;-75
2022/09/08 05:18:59;;;;;;;;;29.00;27.75;;;;;26.42;51.50;99282.03;5064113;28;8867;-74
2022/09/08 05:21:30;;;;;;;;;30.25;27.50;;;;;26.48;51.52;99280.72;5031978;28;8986;-76
2022/09/08 05:24:00;;;;;;;;;32.00;30.00;;;;;26.53;51.07;99278.59;5064849;28;8878;-75
2022/09/08 05:26:29;;;;;;;;;32.25;29.75;;;;;26.61;51.09;99280.75;5047849;28;8856;-79
2022/09/08 05:28:58;;;;;;;;;29.00;26.00;;;;;26.67;50.98;99276.78;5064979;28;8944;-76
2022/09/08 05:31:29;;;;;;;;;22.40;22.40;;;;;26.70;50.33;99276.56;5028580;28;8950;-76
2022/09/08 05:33:59;;;;;;;;;20.80;20.40;;;;;26.74;50.29;99273.56;5019769;28;8923;-75
2022/09/08 05:36:31;;;;;;;;;19.00;19.00;;;;;26.75;49.68;99287.78;5048129;28;8844;-77
2022/09/08 05:39:01;;;;;;;;;21.40;19.80;;;;;26.83;49.58;99293.47;5049085;28;9677;-77
2022/09/08 05:41:31;;;;;;;;;20.80;18.80;;;;;26.74;49.43;99297.63;5064700;28;9013;-78
2022/09/08 05:44:00;;;;;;;;;23.00;22.00;;;;;26.75;49.55;99310.06;5029035;28;8957;-75
2022/09/08 05:46:29;;;;;;;;;19.40;19.40;;;;;26.71;49.66;99303.22;5045875;28;8951;-75
2022/09/08 05:49:01;;;;;;;;;21.60;19.60;;;;;26.38;50.96;99291.22;5017046;28;8918;-76
2022/09/08 05:51:32;;;;;;;;;18.00;16.60;;;;;26.23;51.36;99284.28;5104269;28;8881;-77
2022/09/08 05:54:01;;;;;;;;;14.60;14.00;;;;;26.32;50.61;99282.78;5071751;28;8838;-78
2022/09/08 05:56:32;;;;;;;;;14.40;12.80;;;;;26.50;50.21;99280.63;5103574;27;8900;-76
2022/09/08 05:59:00;;;;;;;;;23.80;22.80;;;;;26.39;51.41;99276.91;5071558;28;8866;-79
2022/09/08 06:01:31;;;;;;;;;24.20;22.80;;;;;26.54;51.30;99292.81;5087069;28;8901;-75
2022/09/08 06:04:02;;;;;;;;;23.80;22.80;;;;;26.64;51.83;99291.25;5068830;28;8856;-76
2022/09/08 06:06:32;;;;;;;;;23.20;21.40;;;;;26.62;51.83;99286.00;5068841;28;9806;-75
2022/09/08 06:09:01;;;;;;;;;27.20;24.40;;;;;26.80;51.69;99285.63;5061809;28;8968;-76
2022/09/08 06:11:31;;;;;;;;;21.25;20.00;;;;;26.87;51.65;99283.38;5033018;28;8873;-75
2022/09/08 06:14:01;;;;;;;;;21.40;20.80;;;;;26.68;51.83;99283.84;5050947;28;8860;-77
2022/09/08 06:16:30;;;;;;;;;28.60;27.80;;;;;26.63;52.15;99290.41;5051252;28;8971;-76
2022/09/08 06:19:01;;;;;;;;;28.75;27.00;;;;;26.54;52.55;99290.13;5051238;28;8864;-76
2022/09/08 06:21:33;;;;;;;;;28.00;26.00;;;;;26.54;52.31;99296.38;5018786;28;8863;-76
2022/09/08 06:24:04;;;;;;;;;27.50;27.50;;;;;26.68;52.15;99282.03;5035817;28;8847;-69
2022/09/08 06:26:50;;;;;;;;;31.25;29.50;;;;;26.90;51.70;99280.47;5048295;28;8856;-68
2022/09/08 06:29:31;;;;;;;;;36.00;33.00;;;;;27.01;51.68;99280.53;5050773;28;9628;-70
2022/09/08 06:32:03;;;;;;;;;22.40;20.80;;;;;26.82;51.19;99279.22;5066989;28;8867;-71
2022/09/08 06:34:43;;;;;;;;;26.00;25.00;;;;;26.74;51.05;99272.72;5050523;28;8803;-69
2022/09/08 06:37:18;;;;;;;;;25.00;25.00;;;;;27.00;50.42;99282.38;5067017;28;8870;-69
2022/09/08 06:39:55;;;;;;;;;26.00;24.75;;;;;26.73;51.42;99274.53;5066331;28;8879;-69
2022/09/08 06:42:36;;;;;;;;;29.80;26.00;;;;;26.89;51.41;99274.28;5079374;28;8859;-72
2022/09/08 06:45:11;;;;;;;;;32.50;28.75;;;;;26.86;51.78;99279.00;5089086;28;8953;-70
2022/09/08 06:47:48;;;;;;;;;30.00;27.25;;;;;27.07;51.44;99279.25;5085759;28;8844;-71
2022/09/08 06:50:17;;;;;;;;;29.50;27.75;;;;;26.86;52.46;99276.31;5089765;28;8932;-69
2022/09/08 06:52:48;;;;;;;;;30.80;29.00;;;;;26.43;53.02;99270.38;5070415;28;8908;-73
2022/09/08 06:55:39;;;;;;;;;31.00;27.25;;;;;26.55;52.82;99257.94;5089962;28;8860;-69
2022/09/08 06:58:21;;;;;;;;;30.20;29.40;;;;;26.74;52.29;99252.16;5080471;28;8843;-70
2022/09/08 07:00:57;;;;;;;;;23.60;23.40;;;;;26.98;50.82;99249.53;5090109;28;8847;-72
2022/09/08 07:03:50;;;;;;;;;23.20;22.20;;;;;27.22;49.90;99244.19;5073249;28;8866;-69
2022/09/08 07:06:24;;;;;;;;;21.00;19.80;;;;;27.35;49.49;99246.84;5070231;28;9614;-71
2022/09/08 07:09:07;;;;;;;;;19.40;19.40;;;;;27.57;48.42;99240.69;5069776;28;8842;-69
2022/09/08 07:11:47;;;;;;;;;19.00;18.60;;;;;27.79;47.96;99247.94;5077491;28;8886;-72
2022/09/08 07:14:42;;;;;;;;;19.60;18.00;;;;;28.09;47.05;99254.63;5088335;28;8840;-71
2022/09/08 07:17:18;;;;;;;;;20.60;19.60;;;;;28.10;48.21;99242.91;5047574;28;8866;-72
2022/09/08 07:19:50;;;;;;;;;18.40;15.80;;;;;28.22;47.14;99251.81;5023302;28;8832;-70
2022/09/08 07:22:28;;;;;;;;;17.60;17.60;;;;;28.49;46.49;99245.28;5011357;28;8882;-74
2022/09/08 07:25:09;;;;;;;;;20.20;18.20;;;;;28.53;46.12;99239.56;5011080;28;8898;-72
2022/09/08 07:27:39;;;;;;;;;15.60;15.60;;;;;28.72;45.89;99246.97;5027344;28;8890;-70
2022/09/08 07:30:15;;;;;;;;;18.40;18.40;;;;;29.05;45.63;99249.72;5011001;28;8938;-74
2022/09/08 07:32:48;;;;;;;;;19.60;18.80;;;;;29.22;45.70;99251.03;5026724;28;8876;-70
2022/09/08 07:35:59;;;;;;;;;17.40;16.00;;;;;29.52;44.61;99242.25;5027028;28;8864;-72
2022/09/08 07:38:39;;;;;;;;;13.80;12.40;;;;;29.66;43.25;99247.31;5042772;28;8873;-72
2022/09/08 07:41:10;;;;;;;;;11.40;11.40;;;;;29.66;42.58;99246.44;5029721;28;8862;-75
2022/09/08 07:43:38;;;;;;;;;7.20;7.20;;;;;29.87;42.34;99251.88;5046927;28;9029;-72
2022/09/08 07:46:26;;;;;;;;;11.00;10.40;;;;;30.03;42.72;99246.03;5014321;28;8884;-80
2022/09/08 07:49:03;;;;;;;;;15.60;14.60;;;;;30.11;43.50;99254.28;5039252;28;8856;-78
2022/09/08 07:51:39;;;;;;;;;15.40;14.60;;;;;30.22;43.28;99253.34;5027905;28;9105;-73
2022/09/08 07:54:24;;;;;;;;;15.60;14.20;;;;;30.44;43.24;99252.38;4999818;28;8834;-77
2022/09/08 07:57:00;;;;;;;;;17.60;16.40;;;;;30.50;43.64;99257.19;5101363;27;8854;-69
2022/09/08 07:59:57;;;;;;;;;17.00;17.00;;;;;30.46;44.19;99251.22;5068900;28;8888;-70
2022/09/08 08:02:53;;;;;;;;;19.00;19.00;;;;;30.62;44.39;99250.72;5085339;28;8856;-73
2022/09/08 08:05:29;;;;;;;;;18.40;16.60;;;;;30.60;44.51;99259.91;5088315;28;8847;-75
2022/09/08 08:08:11;;;;;;;;;19.60;19.60;;;;;30.61;44.12;99259.78;5087373;28;9594;-71
2022/09/08 08:10:48;;;;;;;;;20.00;19.00;;;;;30.63;44.14;99254.28;5088640;28;8885;-71
2022/09/08 08:13:28;;;;;;;;;18.60;17.60;;;;;30.70;44.19;99260.81;5088310;28;8878;-71
2022/09/08 08:16:06;;;;;;;;;20.40;19.40;;;;;30.76;43.83;99262.97;5088470;28;8875;-70
2022/09/08 08:18:49;;;;;;;;;22.00;20.40;;;;;30.84;44.01;99270.34;5088895;28;8881;-71
2022/09/08 08:21:25;;;;;;;;;16.40;16.40;;;;;30.90;42.84;99273.34;5120495;27;8882;-69
2022/09/08 08:24:17;;;;;;;;;20.40;18.40;;;;;31.00;42.93;99267.16;5085169;28;8874;-70
2022/09/08 08:27:00;;;;;;;;;21.20;18.00;;;;;31.02;42.60;99270.56;5088292;28;8890;-71
2022/09/08 08:29:45;;;;;;;;;18.00;16.00;;;;;31.01;43.20;99264.31;5088638;28;8879;-70
2022/09/08 08:32:19;;;;;;;;;17.40;16.40;;;;;31.09;42.62;99263.63;5092641;28;8868;-71
2022/09/08 08:35:13;;;;;;;;;17.40;17.00;;;;;31.19;42.58;99266.34;5092878;28;8866;-68
2022/09/08 08:37:46;;;;;;;;;16.00;16.00;;;;;31.20;42.53;99262.66;5094761;28;8884;-73
2022/09/08 08:40:25;;;;;;;;;20.40;18.40;;;;;31.09;42.46;99261.78;5092202;28;8828;-72
2022/09/08 08:43:14;;;;;;;;;20.40;19.60;;;;;31.19;42.33;99258.25;5088252;28;8863;-70
2022/09/08 08:45:56;;;;;;;;;19.40;16.80;;;;;31.19;41.38;99259.13;5085142;28;8836;-69
2022/09/08 08:48:41;;;;;;;;;17.00;17.00;;;;;31.28;41.10;99254.72;5086379;28;8844;-70
2022/09/08 08:51:24;;;;;;;;;15.60;14.20;;;;;31.27;40.91;99247.63;5086768;28;8886;-70
2022/09/08 08:54:15;;;;;;;;;16.00;14.40;;;;;31.31;40.21;99245.53;5086699;28;8839;-71
2022/09/08 08:56:47;;;;;;;;;19.20;16.80;;;;;31.23;40.81;99235.41;5027532;28;8901;-70
2022/09/08 08:59:49;;;;;;;;;15.00;15.00;;;;;31.34;40.97;99229.03;5044308;28;8850;-70
2022/09/08 09:02:28;;;;;;;;;18.20;17.00;;;;;31.31;41.18;99234.75;5027848;28;8834;-70
2022/09/08 09:05:20;;;;;;;;;17.40;16.80;;;;;31.43;40.86;99225.50;5044723;28;8866;-72
2022/09/08 09:08:26;;;;;;;;;16.20;15.60;;;;;31.51;40.79;99224.81;5027850;28;8886;-73
2022/09/08 09:11:15;;;;;;;;;10.20;9.40;;;;;31.43;40.88;99215.56;5025024;28;8868;-71
2022/09/08 09:14:16;;;;;;;;;11.40;10.80;;;;;31.51;40.09;99217.56;5025152;28;8885;-74
2022/09/08 09:17:04;;;;;;;;;13.20;13.20;;;;;31.57;40.36;99208.94;5039421;28;8888;-74
2022/09/08 09:20:00;;;;;;;;;15.60;15.60;;;;;31.59;40.39;99206.06;5025465;28;8860;-74
2022/09/08 09:22:39;;;;;;;;;12.40;12.40;;;;;31.61;40.35;99196.88;5028116;28;8883;-73
2022/09/08 09:25:19;;;;;;;;;10.80;10.00;;;;;31.61;40.21;99198.72;5032631;28;9036;-74
2022/09/08 09:28:02;;;;;;;;;12.20;11.80;;;;;31.71;39.91;99204.94;5032507;28;9728;-76
2022/09/08 09:30:43;;;;;;;;;10.80;10.00;;;;;31.68;39.68;99191.72;5045952;28;8915;-73
2022/09/08 09:33:56;;;;;;;;;12.40;11.20;;;;;31.78;39.88;99192.59;5032302;28;8920;-74
2022/09/08 09:36:44;;;;;;;;;14.00;12.60;;;;;31.84;39.97;99183.06;5113597;27;8881;-71
2022/09/08 09:39:30;;;;;;;;;13.80;12.80;;;;;31.87;40.22;99177.34;5071662;28;8862;-75
2022/09/08 09:42:29;;;;;;;;;11.00;11.00;;;;;31.83;38.51;99174.13;5071417;28;8919;-77
2022/09/08 09:45:23;;;;;;;;;11.60;11.60;;;;;31.60;39.13;99173.59;5053922;28;8904;-73
2022/09/08 09:48:25;;;;;;;;;12.00;12.00;;;;;31.79;38.72;99169.16;5088627;28;8890;-72
2022/09/08 09:51:05;;;;;;;;;10.00;9.40;;;;;31.84;38.40;99164.19;5090291;28;8880;-74
2022/09/08 09:53:48;;;;;;;;;13.60;13.60;;;;;31.99;39.85;99161.88;5091516;28;8973;-72
2022/09/08 09:56:42;;;;;;;;;11.80;11.80;;;;;32.16;38.97;99162.97;5112339;27;8921;-74
2022/09/08 09:59:44;;;;;;;;;13.00;13.00;;;;;32.12;39.30;99173.19;5066854;28;8892;-72
2022/09/08 10:03:01;;;;;;;;;11.40;10.20;;;;;32.23;39.52;99164.03;5057663;28;8846;-73
2022/09/08 10:06:22;;;;;;;;;10.60;8.00;;;;;32.11;37.48;99173.34;5085569;28;8831;-74
2022/09/08 10:09:24;;;;;;;;;10.00;9.20;;;;;32.21;36.85;99176.84;5063239;28;8864;-81
2022/09/08 10:12:46;;;;;;;;;8.40;8.40;;;;;32.24;36.10;99166.59;5053931;28;8858;-81
2022/09/08 10:15:40;;;;;;;;;7.20;7.20;;;;;32.31;36.06;99155.19;5011001;28;8854;-82
2022/09/08 10:18:51;;;;;;;;;8.60;8.40;;;;;32.27;35.91;99162.78;4979323;28;8881;-80
2022/09/08 10:21:48;;;;;;;;;5.60;5.60;;;;;32.34;36.18;99158.44;4943801;28;8873;-80
2022/09/08 10:24:52;;;;;;;;;8.20;7.40;;;;;32.43;36.38;99165.66;4860581;29;8898;-73
2022/09/08 10:27:57;;;;;;;;;7.00;7.00;;;;;32.47;36.44;99177.00;4874132;29;8913;-82
2022/09/08 10:30:58;;;;;;;;;9.40;8.40;;;;;32.51;36.46;99175.69;4859552;29;8863;-81
2022/09/08 10:33:49;;;;;;;;;7.80;7.20;;;;;32.54;36.67;99170.00;4874514;29;9031;-81
2022/09/08 10:36:26;;;;;;;;;8.00;8.00;;;;;32.58;37.12;99167.88;4874373;29;8965;-79
2022/09/08 10:39:05;;;;;;;;;8.00;8.00;;;;;32.66;36.92;99169.81;4862662;29;8944;-79
2022/09/08 10:42:13;;;;;;;;;7.60;7.60;;;;;32.71;36.47;99165.66;4874752;29;9117;-82
2022/09/08 10:44:51;;;;;;;;;7.00;6.80;;;;;32.73;36.08;99165.53;4894151;29;8868;-73
2022/09/08 10:47:49;;;;;;;;;10.20;9.20;;;;;32.90;36.73;99172.78;4944934;28;8853;-74
2022/09/08 10:50:21;;;;;;;;;11.20;10.60;;;;;32.62;36.78;99180.91;4950004;28;8863;-73
2022/09/08 10:53:06;;;;;;;;;9.20;8.00;;;;;32.83;35.62;99175.25;4949725;28;8998;-75
2022/09/08 10:56:02;;;;;;;;;10.00;9.20;;;;;32.82;35.51;99176.25;4930473;29;9579;-73
2022/09/08 10:58:58;;;;;;;;;3.80;2.80;;;;;32.95;35.85;99185.81;4961218;28;8864;-74
2022/09/08 11:02:02;;;;;;;;;8.40;6.80;;;;;33.08;33.89;99190.84;4980329;28;8868;-74
2022/09/08 11:05:05;;;;;;;;;5.60;5.60;;;;;32.84;34.02;99189.63;5027628;28;8861;-73
2022/09/08 11:08:03;;;;;;;;;7.20;7.20;;;;;33.18;33.28;99181.69;5027891;28;8857;-73
2022/09/08 11:10:50;;;;;;;;;9.40;8.20;;;;;33.20;33.28;99177.00;5027882;28;8857;-78
2022/09/08 11:13:30;;;;;;;;;11.80;11.00;;;;;33.40;32.13;99180.38;5011263;28;8846;-70
2022/09/08 11:16:45;;;;;;;;;9.60;9.00;;;;;33.39;32.52;99184.06;5027513;28;8888;-75
2022/09/08 11:19:36;;;;;;;;;8.20;7.80;;;;;33.53;33.67;99185.34;4967845;28;8857;-72
2022/09/08 11:22:28;;;;;;;;;9.60;9.60;;;;;33.82;32.44;99181.56;4952412;28;8861;-72
2022/09/08 11:25:24;;;;;;;;;11.20;11.20;;;;;34.08;32.40;99181.53;4967613;28;8832;-73
2022/09/08 11:28:05;;;;;;;;;11.40;10.00;;;;;34.18;31.36;99182.28;4924540;29;8874;-72
2022/09/08 11:30:41;;;;;;;;;9.20;8.00;;;;;34.25;31.48;99177.06;4929989;29;8866;-73
2022/09/08 11:33:23;;;;;;;;;10.40;6.40;;;;;34.32;31.44;99171.88;4924901;28;8979;-74
2022/09/08 11:36:11;;;;;;;;;6.80;6.80;;;;;34.65;31.03;99170.13;4928161;28;8912;-84
2022/09/08 11:38:57;;;;;;;;;7.20;7.20;;;;;34.85;30.90;99178.81;4965454;28;8892;-82
2022/09/08 11:41:53;;;;;;;;;6.60;6.20;;;;;35.13;30.16;99173.97;4993065;28;8930;-83
2022/09/08 11:44:41;;;;;;;;;7.80;7.80;;;;;35.26;29.52;99175.38;4971499;28;8882;-83
2022/09/08 11:47:37;;;;;;;;;8.20;6.40;;;;;35.32;29.51;99167.38;4985641;28;8862;-82
2022/09/08 11:50:25;;;;;;;;;5.60;5.60;;;;;35.67;29.63;99159.91;4990337;28;8895;-81
2022/09/08 11:53:21;;;;;;;;;8.00;8.00;;;;;35.92;29.10;99155.31;4988561;28;8866;-82
2022/09/08 11:56:29;;;;;;;;;8.60;8.60;;;;;36.27;28.83;99158.59;5016487;28;8862;-82
2022/09/08 11:59:14;;;;;;;;;9.40;8.20;;;;;36.41;28.36;99157.03;5040366;28;8985;-81
2022/09/08 12:01:59;;;;;;;;;7.40;7.40;;;;;36.69;28.16;99151.09;5070897;28;8941;-82
2022/09/08 12:04:59;;;;;;;;;6.00;6.00;;;;;36.78;27.43;99158.19;5068851;28;8846;-84
2022/09/08 12:08:13;;;;;;;;;7.20;6.60;;;;;37.02;27.66;99151.75;5069736;28;8958;-82
2022/09/08 12:11:02;;;;;;;;;9.20;8.20;;;;;37.33;26.70;99152.72;5072410;28;8896;-81
2022/09/08 12:13:39;;;;;;;;;9.00;7.40;;;;;37.43;27.23;99150.56;5078178;28;8858;-81
2022/09/08 12:16:37;;;;;;;;;7.80;7.80;;;;;37.78;26.94;99159.13;5084840;28;8945;-82
2022/09/08 12:19:43;;;;;;;;;9.00;7.20;;;;;38.03;26.46;99152.34;5070435;28;8877;-81
2022/09/08 12:22:31;;;;;;;;;7.60;7.60;;;;;38.00;26.39;99143.75;5070718;28;8858;-82
2022/09/08 12:25:21;;;;;;;;;8.80;8.80;;;;;38.09;25.90;99153.50;5039442;28;8884;-84